sensor_id;sensor_type;location;lat;lon;timestamp;P1;durP1;ratioP1;P2;durP2;ratioP2
10831;SDS011;5469;48.574;8.768;2023-05-18T00:00:01;1.90;;;1.33;;
10831;SDS011;5469;48.574;8.768;2023-05-18T00:02:37;2.43;;;1.17;;
10831;SDS011;5469;48.574;8.768;2023-05-18T00:05:11;1.00;;;1.00;;
10831;SDS011;5469;48.574;8.768;2023-05-18T00:07:46;1.00;;;0.90;;
10831;SDS011;5469;48.574;8.768;2023-05-18T00:10:19;1.43;;;0.83;;
10831;SDS011;5469;48.574;8.768;2023-05-18T00:12:53;4.97;;;0.90;;
10831;SDS011;5469;48.574;8.768;2023-05-18T00:15:26;1.23;;;0.90;;
10831;SDS011;5469;48.574;8.768;2023-05-18T00:18:00;2.37;;;1.43;;
10831;SDS011;5469;48.574;8.768;2023-05-18T00:20:33;2.13;;;1.20;;
10831;SDS011;5469;48.574;8.768;2023-05-18T00:23:08;3.13;;;1.20;;
10831;SDS011;5469;48.574;8.768;2023-05-18T00:25:47;0.73;;;0.73;;
10831;SDS011;5469;48.574;8.768;2023-05-18T00:28:20;1.60;;;1.30;;
10831;SDS011;5469;48.574;8.768;2023-05-18T00:30:53;1.37;;;0.90;;
10831;SDS011;5469;48.574;8.768;2023-05-18T00:33:27;2.23;;;1.80;;
10831;SDS011;5469;48.574;8.768;2023-05-18T00:36:00;3.03;;;1.67;;
10831;SDS011;5469;48.574;8.768;2023-05-18T00:38:35;1.67;;;0.87;;
10831;SDS011;5469;48.574;8.768;2023-05-18T00:41:09;2.87;;;1.40;;
10831;SDS011;5469;48.574;8.768;2023-05-18T00:43:42;1.30;;;1.03;;
10831;SDS011;5469;48.574;8.768;2023-05-18T00:46:15;0.80;;;0.80;;
10831;SDS011;5469;48.574;8.768;2023-05-18T00:48:49;2.10;;;1.20;;
10831;SDS011;5469;48.574;8.768;2023-05-18T00:51:23;1.00;;;0.90;;
10831;SDS011;5469;48.574;8.768;2023-05-18T00:53:58;1.00;;;1.00;;
10831;SDS011;5469;48.574;8.768;2023-05-18T00:56:34;1.73;;;1.00;;
10831;SDS011;5469;48.574;8.768;2023-05-18T00:59:12;2.27;;;1.33;;
10831;SDS011;5469;48.574;8.768;2023-05-18T01:01:46;2.27;;;1.40;;
10831;SDS011;5469;48.574;8.768;2023-05-18T01:04:20;4.43;;;1.20;;
10831;SDS011;5469;48.574;8.768;2023-05-18T01:06:55;1.90;;;1.10;;
10831;SDS011;5469;48.574;8.768;2023-05-18T01:09:30;1.37;;;0.80;;
10831;SDS011;5469;48.574;8.768;2023-05-18T01:12:05;2.83;;;1.17;;
10831;SDS011;5469;48.574;8.768;2023-05-18T01:14:47;1.93;;;1.10;;
10831;SDS011;5469;48.574;8.768;2023-05-18T01:17:25;1.27;;;1.00;;
10831;SDS011;5469;48.574;8.768;2023-05-18T01:20:11;1.67;;;1.00;;
10831;SDS011;5469;48.574;8.768;2023-05-18T01:22:57;1.73;;;0.70;;
10831;SDS011;5469;48.574;8.768;2023-05-18T01:25:46;1.07;;;1.00;;
10831;SDS011;5469;48.574;8.768;2023-05-18T01:28:28;1.63;;;0.87;;
10831;SDS011;5469;48.574;8.768;2023-05-18T01:31:04;0.83;;;0.60;;
10831;SDS011;5469;48.574;8.768;2023-05-18T01:33:38;0.83;;;0.70;;
10831;SDS011;5469;48.574;8.768;2023-05-18T01:36:11;3.87;;;1.00;;
10831;SDS011;5469;48.574;8.768;2023-05-18T01:38:45;0.77;;;0.57;;
10831;SDS011;5469;48.574;8.768;2023-05-18T01:41:19;1.07;;;0.87;;
10831;SDS011;5469;48.574;8.768;2023-05-18T01:43:58;1.50;;;1.40;;
10831;SDS011;5469;48.574;8.768;2023-05-18T01:46:39;2.23;;;1.13;;
10831;SDS011;5469;48.574;8.768;2023-05-18T01:49:19;1.20;;;0.87;;
10831;SDS011;5469;48.574;8.768;2023-05-18T01:52:00;2.33;;;1.27;;
10831;SDS011;5469;48.574;8.768;2023-05-18T01:54:36;0.40;;;0.40;;
10831;SDS011;5469;48.574;8.768;2023-05-18T01:57:13;4.77;;;1.10;;
10831;SDS011;5469;48.574;8.768;2023-05-18T01:59:49;1.23;;;0.90;;
10831;SDS011;5469;48.574;8.768;2023-05-18T02:02:25;1.63;;;1.10;;
10831;SDS011;5469;48.574;8.768;2023-05-18T02:04:59;2.37;;;1.30;;
10831;SDS011;5469;48.574;8.768;2023-05-18T02:07:32;2.03;;;1.27;;
10831;SDS011;5469;48.574;8.768;2023-05-18T02:10:05;0.97;;;0.93;;
10831;SDS011;5469;48.574;8.768;2023-05-18T02:12:39;2.07;;;0.97;;
10831;SDS011;5469;48.574;8.768;2023-05-18T02:15:14;1.03;;;0.93;;
10831;SDS011;5469;48.574;8.768;2023-05-18T02:17:48;1.20;;;1.10;;
10831;SDS011;5469;48.574;8.768;2023-05-18T02:20:21;1.73;;;1.10;;
10831;SDS011;5469;48.574;8.768;2023-05-18T02:22:54;0.67;;;0.63;;
10831;SDS011;5469;48.574;8.768;2023-05-18T02:25:28;1.27;;;0.93;;
10831;SDS011;5469;48.574;8.768;2023-05-18T02:28:02;1.50;;;1.00;;
10831;SDS011;5469;48.574;8.768;2023-05-18T02:30:37;5.00;;;1.40;;
10831;SDS011;5469;48.574;8.768;2023-05-18T02:33:10;1.57;;;0.97;;
10831;SDS011;5469;48.574;8.768;2023-05-18T02:35:43;2.60;;;1.47;;
10831;SDS011;5469;48.574;8.768;2023-05-18T02:38:17;0.83;;;0.83;;
10831;SDS011;5469;48.574;8.768;2023-05-18T02:40:50;1.53;;;1.20;;
10831;SDS011;5469;48.574;8.768;2023-05-18T02:43:23;1.07;;;0.97;;
10831;SDS011;5469;48.574;8.768;2023-05-18T02:45:58;4.07;;;1.63;;
10831;SDS011;5469;48.574;8.768;2023-05-18T02:48:32;1.43;;;1.13;;
10831;SDS011;5469;48.574;8.768;2023-05-18T02:51:05;1.33;;;1.17;;
10831;SDS011;5469;48.574;8.768;2023-05-18T02:53:38;1.67;;;1.20;;
10831;SDS011;5469;48.574;8.768;2023-05-18T02:56:14;2.00;;;1.00;;
10831;SDS011;5469;48.574;8.768;2023-05-18T02:58:48;1.07;;;0.73;;
10831;SDS011;5469;48.574;8.768;2023-05-18T03:01:29;1.47;;;1.20;;
10831;SDS011;5469;48.574;8.768;2023-05-18T03:04:05;2.73;;;1.33;;
10831;SDS011;5469;48.574;8.768;2023-05-18T03:06:38;1.20;;;1.10;;
10831;SDS011;5469;48.574;8.768;2023-05-18T03:09:12;1.17;;;0.90;;
10831;SDS011;5469;48.574;8.768;2023-05-18T03:11:46;2.30;;;0.97;;
10831;SDS011;5469;48.574;8.768;2023-05-18T03:14:19;3.27;;;1.97;;
10831;SDS011;5469;48.574;8.768;2023-05-18T03:16:54;1.67;;;1.20;;
10831;SDS011;5469;48.574;8.768;2023-05-18T03:19:28;3.13;;;1.13;;
10831;SDS011;5469;48.574;8.768;2023-05-18T03:22:01;4.27;;;1.10;;
10831;SDS011;5469;48.574;8.768;2023-05-18T03:24:36;1.17;;;0.97;;
10831;SDS011;5469;48.574;8.768;2023-05-18T03:27:11;1.43;;;0.97;;
10831;SDS011;5469;48.574;8.768;2023-05-18T03:29:47;3.20;;;1.20;;
10831;SDS011;5469;48.574;8.768;2023-05-18T03:32:21;0.70;;;0.70;;
10831;SDS011;5469;48.574;8.768;2023-05-18T03:34:55;1.60;;;1.20;;
10831;SDS011;5469;48.574;8.768;2023-05-18T03:37:31;1.37;;;0.90;;
10831;SDS011;5469;48.574;8.768;2023-05-18T03:40:08;0.70;;;0.70;;
10831;SDS011;5469;48.574;8.768;2023-05-18T03:42:43;1.63;;;1.00;;
10831;SDS011;5469;48.574;8.768;2023-05-18T03:45:16;2.17;;;0.70;;
10831;SDS011;5469;48.574;8.768;2023-05-18T03:47:51;3.90;;;1.00;;
10831;SDS011;5469;48.574;8.768;2023-05-18T03:50:24;0.97;;;0.70;;
10831;SDS011;5469;48.574;8.768;2023-05-18T03:52:59;1.23;;;0.87;;
10831;SDS011;5469;48.574;8.768;2023-05-18T03:55:32;1.23;;;1.20;;
10831;SDS011;5469;48.574;8.768;2023-05-18T03:58:06;0.83;;;0.80;;
10831;SDS011;5469;48.574;8.768;2023-05-18T04:00:39;1.00;;;0.90;;
10831;SDS011;5469;48.574;8.768;2023-05-18T04:03:14;1.33;;;1.07;;
10831;SDS011;5469;48.574;8.768;2023-05-18T04:05:48;5.80;;;1.07;;
10831;SDS011;5469;48.574;8.768;2023-05-18T04:08:21;3.90;;;1.27;;
10831;SDS011;5469;48.574;8.768;2023-05-18T04:10:56;2.67;;;1.03;;
10831;SDS011;5469;48.574;8.768;2023-05-18T04:13:29;1.80;;;0.97;;
10831;SDS011;5469;48.574;8.768;2023-05-18T04:16:03;1.03;;;0.60;;
10831;SDS011;5469;48.574;8.768;2023-05-18T04:18:38;1.87;;;1.23;;
10831;SDS011;5469;48.574;8.768;2023-05-18T04:21:11;2.27;;;1.53;;
10831;SDS011;5469;48.574;8.768;2023-05-18T04:23:46;1.30;;;1.10;;
10831;SDS011;5469;48.574;8.768;2023-05-18T04:26:20;1.43;;;1.30;;
10831;SDS011;5469;48.574;8.768;2023-05-18T04:28:53;1.63;;;0.90;;
10831;SDS011;5469;48.574;8.768;2023-05-18T04:31:30;1.17;;;0.80;;
10831;SDS011;5469;48.574;8.768;2023-05-18T04:34:06;2.17;;;1.23;;
10831;SDS011;5469;48.574;8.768;2023-05-18T04:36:40;1.37;;;1.27;;
10831;SDS011;5469;48.574;8.768;2023-05-18T04:39:14;2.30;;;1.33;;
10831;SDS011;5469;48.574;8.768;2023-05-18T04:41:48;1.03;;;0.93;;
10831;SDS011;5469;48.574;8.768;2023-05-18T04:44:29;1.60;;;1.00;;
10831;SDS011;5469;48.574;8.768;2023-05-18T04:47:04;2.83;;;1.13;;
10831;SDS011;5469;48.574;8.768;2023-05-18T04:49:40;1.63;;;1.00;;
10831;SDS011;5469;48.574;8.768;2023-05-18T04:52:14;1.17;;;0.87;;
10831;SDS011;5469;48.574;8.768;2023-05-18T04:54:47;2.17;;;0.93;;
10831;SDS011;5469;48.574;8.768;2023-05-18T04:57:21;1.43;;;0.87;;
10831;SDS011;5469;48.574;8.768;2023-05-18T04:59:55;1.73;;;1.33;;
10831;SDS011;5469;48.574;8.768;2023-05-18T05:02:28;1.03;;;0.70;;
10831;SDS011;5469;48.574;8.768;2023-05-18T05:05:03;1.37;;;0.80;;
10831;SDS011;5469;48.574;8.768;2023-05-18T05:07:37;1.73;;;1.30;;
10831;SDS011;5469;48.574;8.768;2023-05-18T05:10:11;1.17;;;0.97;;
10831;SDS011;5469;48.574;8.768;2023-05-18T05:12:44;1.17;;;1.07;;
10831;SDS011;5469;48.574;8.768;2023-05-18T05:15:18;1.17;;;1.07;;
10831;SDS011;5469;48.574;8.768;2023-05-18T05:17:51;1.67;;;1.03;;
10831;SDS011;5469;48.574;8.768;2023-05-18T05:20:26;3.67;;;0.80;;
10831;SDS011;5469;48.574;8.768;2023-05-18T05:22:59;1.23;;;0.80;;
10831;SDS011;5469;48.574;8.768;2023-05-18T05:25:33;1.23;;;1.10;;
10831;SDS011;5469;48.574;8.768;2023-05-18T05:28:06;6.57;;;0.77;;
10831;SDS011;5469;48.574;8.768;2023-05-18T05:30:39;1.10;;;1.00;;
10831;SDS011;5469;48.574;8.768;2023-05-18T05:33:13;0.53;;;0.53;;
10831;SDS011;5469;48.574;8.768;2023-05-18T05:35:48;4.20;;;1.50;;
10831;SDS011;5469;48.574;8.768;2023-05-18T05:38:21;0.67;;;0.67;;
10831;SDS011;5469;48.574;8.768;2023-05-18T05:40:54;1.10;;;0.83;;
10831;SDS011;5469;48.574;8.768;2023-05-18T05:43:28;0.80;;;0.50;;
10831;SDS011;5469;48.574;8.768;2023-05-18T05:46:01;1.07;;;1.00;;
10831;SDS011;5469;48.574;8.768;2023-05-18T05:48:35;1.03;;;0.93;;
10831;SDS011;5469;48.574;8.768;2023-05-18T05:51:09;2.10;;;0.93;;
10831;SDS011;5469;48.574;8.768;2023-05-18T05:53:43;1.23;;;1.00;;
10831;SDS011;5469;48.574;8.768;2023-05-18T05:56:18;0.57;;;0.57;;
10831;SDS011;5469;48.574;8.768;2023-05-18T05:58:51;0.97;;;0.97;;
10831;SDS011;5469;48.574;8.768;2023-05-18T06:01:25;0.70;;;0.70;;
10831;SDS011;5469;48.574;8.768;2023-05-18T06:04:00;3.03;;;1.20;;
10831;SDS011;5469;48.574;8.768;2023-05-18T06:06:36;0.60;;;0.53;;
10831;SDS011;5469;48.574;8.768;2023-05-18T06:09:10;1.00;;;0.80;;
10831;SDS011;5469;48.574;8.768;2023-05-18T06:11:44;1.30;;;1.20;;
10831;SDS011;5469;48.574;8.768;2023-05-18T06:14:17;2.03;;;1.10;;
10831;SDS011;5469;48.574;8.768;2023-05-18T06:16:51;1.00;;;1.00;;
10831;SDS011;5469;48.574;8.768;2023-05-18T06:19:25;1.37;;;0.80;;
10831;SDS011;5469;48.574;8.768;2023-05-18T06:22:00;0.73;;;0.70;;
10831;SDS011;5469;48.574;8.768;2023-05-18T06:24:33;3.33;;;1.37;;
10831;SDS011;5469;48.574;8.768;2023-05-18T06:27:06;2.90;;;1.23;;
10831;SDS011;5469;48.574;8.768;2023-05-18T06:29:40;0.83;;;0.73;;
10831;SDS011;5469;48.574;8.768;2023-05-18T06:32:13;1.20;;;1.03;;
10831;SDS011;5469;48.574;8.768;2023-05-18T06:34:47;0.50;;;0.50;;
10831;SDS011;5469;48.574;8.768;2023-05-18T06:37:22;4.73;;;0.73;;
10831;SDS011;5469;48.574;8.768;2023-05-18T06:39:56;1.93;;;0.77;;
10831;SDS011;5469;48.574;8.768;2023-05-18T06:42:30;1.23;;;0.70;;
10831;SDS011;5469;48.574;8.768;2023-05-18T06:45:04;1.60;;;0.70;;
10831;SDS011;5469;48.574;8.768;2023-05-18T06:47:39;0.70;;;0.70;;
10831;SDS011;5469;48.574;8.768;2023-05-18T06:50:13;3.63;;;0.90;;
10831;SDS011;5469;48.574;8.768;2023-05-18T06:52:47;0.67;;;0.47;;
10831;SDS011;5469;48.574;8.768;2023-05-18T06:55:22;1.07;;;0.80;;
10831;SDS011;5469;48.574;8.768;2023-05-18T06:57:55;1.43;;;0.70;;
10831;SDS011;5469;48.574;8.768;2023-05-18T07:00:28;0.60;;;0.60;;
10831;SDS011;5469;48.574;8.768;2023-05-18T07:03:02;1.30;;;1.20;;
10831;SDS011;5469;48.574;8.768;2023-05-18T07:05:35;1.37;;;1.13;;
10831;SDS011;5469;48.574;8.768;2023-05-18T07:08:10;1.20;;;1.10;;
10831;SDS011;5469;48.574;8.768;2023-05-18T07:10:44;1.53;;;1.20;;
10831;SDS011;5469;48.574;8.768;2023-05-18T07:13:17;2.67;;;1.03;;
10831;SDS011;5469;48.574;8.768;2023-05-18T07:15:51;2.10;;;0.93;;
10831;SDS011;5469;48.574;8.768;2023-05-18T07:18:24;0.90;;;0.90;;
10831;SDS011;5469;48.574;8.768;2023-05-18T07:20:58;0.73;;;0.73;;
10831;SDS011;5469;48.574;8.768;2023-05-18T07:23:33;1.30;;;1.13;;
10831;SDS011;5469;48.574;8.768;2023-05-18T07:26:06;1.47;;;1.03;;
10831;SDS011;5469;48.574;8.768;2023-05-18T07:28:41;1.63;;;0.57;;
10831;SDS011;5469;48.574;8.768;2023-05-18T07:31:14;1.57;;;0.73;;
10831;SDS011;5469;48.574;8.768;2023-05-18T07:33:51;2.10;;;1.50;;
10831;SDS011;5469;48.574;8.768;2023-05-18T07:36:25;0.60;;;0.50;;
10831;SDS011;5469;48.574;8.768;2023-05-18T07:39:00;1.40;;;0.90;;
10831;SDS011;5469;48.574;8.768;2023-05-18T07:41:35;4.10;;;1.00;;
10831;SDS011;5469;48.574;8.768;2023-05-18T07:44:08;2.00;;;1.00;;
10831;SDS011;5469;48.574;8.768;2023-05-18T07:46:42;0.93;;;0.80;;
10831;SDS011;5469;48.574;8.768;2023-05-18T07:49:15;2.50;;;1.53;;
10831;SDS011;5469;48.574;8.768;2023-05-18T07:51:49;1.63;;;1.43;;
10831;SDS011;5469;48.574;8.768;2023-05-18T07:54:24;2.60;;;1.23;;
10831;SDS011;5469;48.574;8.768;2023-05-18T07:56:58;1.17;;;1.07;;
10831;SDS011;5469;48.574;8.768;2023-05-18T07:59:31;1.40;;;0.93;;
10831;SDS011;5469;48.574;8.768;2023-05-18T08:02:05;0.90;;;0.90;;
10831;SDS011;5469;48.574;8.768;2023-05-18T08:04:39;5.60;;;1.83;;
10831;SDS011;5469;48.574;8.768;2023-05-18T08:07:12;1.47;;;0.90;;
10831;SDS011;5469;48.574;8.768;2023-05-18T08:09:48;1.87;;;1.13;;
10831;SDS011;5469;48.574;8.768;2023-05-18T08:12:21;1.03;;;0.97;;
10831;SDS011;5469;48.574;8.768;2023-05-18T08:14:55;2.13;;;0.97;;
10831;SDS011;5469;48.574;8.768;2023-05-18T08:17:29;1.03;;;1.00;;
10831;SDS011;5469;48.574;8.768;2023-05-18T08:20:03;1.37;;;1.07;;
10831;SDS011;5469;48.574;8.768;2023-05-18T08:22:39;0.93;;;0.93;;
10831;SDS011;5469;48.574;8.768;2023-05-18T08:25:14;4.20;;;2.40;;
10831;SDS011;5469;48.574;8.768;2023-05-18T08:27:47;4.93;;;1.10;;
10831;SDS011;5469;48.574;8.768;2023-05-18T08:30:21;1.70;;;1.23;;
10831;SDS011;5469;48.574;8.768;2023-05-18T08:32:54;1.10;;;1.00;;
10831;SDS011;5469;48.574;8.768;2023-05-18T08:35:28;2.10;;;1.13;;
10831;SDS011;5469;48.574;8.768;2023-05-18T08:38:03;1.30;;;1.20;;
10831;SDS011;5469;48.574;8.768;2023-05-18T08:40:40;4.80;;;1.47;;
10831;SDS011;5469;48.574;8.768;2023-05-18T08:43:17;1.57;;;1.47;;
10831;SDS011;5469;48.574;8.768;2023-05-18T08:45:56;3.03;;;1.50;;
10831;SDS011;5469;48.574;8.768;2023-05-18T08:48:33;2.00;;;1.73;;
10831;SDS011;5469;48.574;8.768;2023-05-18T08:51:09;1.93;;;1.23;;
10831;SDS011;5469;48.574;8.768;2023-05-18T08:53:45;1.47;;;1.33;;
10831;SDS011;5469;48.574;8.768;2023-05-18T08:56:25;3.70;;;1.30;;
10831;SDS011;5469;48.574;8.768;2023-05-18T08:58:58;1.10;;;1.00;;
10831;SDS011;5469;48.574;8.768;2023-05-18T09:01:38;1.53;;;1.43;;
10831;SDS011;5469;48.574;8.768;2023-05-18T09:04:12;1.30;;;1.20;;
10831;SDS011;5469;48.574;8.768;2023-05-18T09:06:47;2.80;;;1.23;;
10831;SDS011;5469;48.574;8.768;2023-05-18T09:09:21;2.17;;;1.40;;
10831;SDS011;5469;48.574;8.768;2023-05-18T09:11:57;2.63;;;1.50;;
10831;SDS011;5469;48.574;8.768;2023-05-18T09:14:31;1.90;;;1.40;;
10831;SDS011;5469;48.574;8.768;2023-05-18T09:17:04;4.83;;;1.80;;
10831;SDS011;5469;48.574;8.768;2023-05-18T09:19:38;1.73;;;1.30;;
10831;SDS011;5469;48.574;8.768;2023-05-18T09:22:11;1.30;;;1.20;;
10831;SDS011;5469;48.574;8.768;2023-05-18T09:24:46;1.70;;;1.17;;
10831;SDS011;5469;48.574;8.768;2023-05-18T09:27:22;1.73;;;1.30;;
10831;SDS011;5469;48.574;8.768;2023-05-18T09:29:57;1.93;;;1.57;;
10831;SDS011;5469;48.574;8.768;2023-05-18T09:32:33;2.37;;;1.30;;
10831;SDS011;5469;48.574;8.768;2023-05-18T09:35:08;3.73;;;1.67;;
10831;SDS011;5469;48.574;8.768;2023-05-18T09:37:42;1.60;;;1.40;;
10831;SDS011;5469;48.574;8.768;2023-05-18T09:40:16;2.40;;;1.40;;
10831;SDS011;5469;48.574;8.768;2023-05-18T09:42:52;2.60;;;1.50;;
10831;SDS011;5469;48.574;8.768;2023-05-18T09:45:26;1.57;;;1.20;;
10831;SDS011;5469;48.574;8.768;2023-05-18T09:47:59;2.80;;;1.50;;
10831;SDS011;5469;48.574;8.768;2023-05-18T09:50:33;1.40;;;1.30;;
10831;SDS011;5469;48.574;8.768;2023-05-18T09:53:08;2.40;;;1.40;;
10831;SDS011;5469;48.574;8.768;2023-05-18T09:55:43;1.63;;;1.30;;
10831;SDS011;5469;48.574;8.768;2023-05-18T09:58:19;1.40;;;1.10;;
10831;SDS011;5469;48.574;8.768;2023-05-18T10:00:53;4.20;;;1.43;;
10831;SDS011;5469;48.574;8.768;2023-05-18T10:03:33;1.77;;;1.67;;
10831;SDS011;5469;48.574;8.768;2023-05-18T10:06:08;1.60;;;1.20;;
10831;SDS011;5469;48.574;8.768;2023-05-18T10:08:44;1.43;;;1.30;;
10831;SDS011;5469;48.574;8.768;2023-05-18T10:11:17;2.30;;;1.77;;
10831;SDS011;5469;48.574;8.768;2023-05-18T10:13:53;1.20;;;1.10;;
10831;SDS011;5469;48.574;8.768;2023-05-18T10:16:27;1.97;;;1.27;;
10831;SDS011;5469;48.574;8.768;2023-05-18T10:19:01;3.57;;;2.00;;
10831;SDS011;5469;48.574;8.768;2023-05-18T10:21:38;2.07;;;1.40;;
10831;SDS011;5469;48.574;8.768;2023-05-18T10:24:12;2.90;;;1.60;;
10831;SDS011;5469;48.574;8.768;2023-05-18T10:26:51;5.70;;;1.60;;
10831;SDS011;5469;48.574;8.768;2023-05-18T10:29:30;3.63;;;1.47;;
10831;SDS011;5469;48.574;8.768;2023-05-18T10:32:05;1.67;;;1.50;;
10831;SDS011;5469;48.574;8.768;2023-05-18T10:34:44;1.53;;;1.03;;
10831;SDS011;5469;48.574;8.768;2023-05-18T10:37:18;3.23;;;2.07;;
10831;SDS011;5469;48.574;8.768;2023-05-18T10:39:53;2.07;;;1.40;;
10831;SDS011;5469;48.574;8.768;2023-05-18T10:42:30;1.07;;;0.83;;
10831;SDS011;5469;48.574;8.768;2023-05-18T10:45:07;2.37;;;1.00;;
10831;SDS011;5469;48.574;8.768;2023-05-18T10:47:42;2.30;;;1.60;;
10831;SDS011;5469;48.574;8.768;2023-05-18T10:50:16;3.10;;;1.30;;
10831;SDS011;5469;48.574;8.768;2023-05-18T10:52:50;2.60;;;1.43;;
10831;SDS011;5469;48.574;8.768;2023-05-18T10:55:25;1.73;;;1.37;;
10831;SDS011;5469;48.574;8.768;2023-05-18T10:58:00;3.13;;;1.33;;
10831;SDS011;5469;48.574;8.768;2023-05-18T11:00:38;3.17;;;1.30;;
10831;SDS011;5469;48.574;8.768;2023-05-18T11:03:13;2.03;;;1.83;;
10831;SDS011;5469;48.574;8.768;2023-05-18T11:05:49;2.93;;;1.50;;
10831;SDS011;5469;48.574;8.768;2023-05-18T11:08:24;3.37;;;1.20;;
10831;SDS011;5469;48.574;8.768;2023-05-18T11:10:59;2.97;;;2.53;;
10831;SDS011;5469;48.574;8.768;2023-05-18T11:13:34;3.80;;;2.97;;
10831;SDS011;5469;48.574;8.768;2023-05-18T11:16:10;3.80;;;2.40;;
10831;SDS011;5469;48.574;8.768;2023-05-18T11:18:44;6.27;;;2.50;;
10831;SDS011;5469;48.574;8.768;2023-05-18T11:21:20;4.03;;;2.53;;
10831;SDS011;5469;48.574;8.768;2023-05-18T11:24:22;3.00;;;1.70;;
10831;SDS011;5469;48.574;8.768;2023-05-18T11:26:57;1.93;;;1.73;;
10831;SDS011;5469;48.574;8.768;2023-05-18T11:29:34;3.37;;;1.77;;
10831;SDS011;5469;48.574;8.768;2023-05-18T11:32:23;2.53;;;1.53;;
10831;SDS011;5469;48.574;8.768;2023-05-18T11:34:58;1.87;;;1.43;;
10831;SDS011;5469;48.574;8.768;2023-05-18T11:37:48;10.97;;;5.13;;
10831;SDS011;5469;48.574;8.768;2023-05-18T11:43:20;23.63;;;13.00;;
10831;SDS011;5469;48.574;8.768;2023-05-18T11:45:55;33.60;;;17.90;;
10831;SDS011;5469;48.574;8.768;2023-05-18T11:48:31;32.93;;;18.10;;
10831;SDS011;5469;48.574;8.768;2023-05-18T11:51:05;30.80;;;16.33;;
10831;SDS011;5469;48.574;8.768;2023-05-18T11:53:42;34.10;;;18.63;;
10831;SDS011;5469;48.574;8.768;2023-05-18T11:56:16;34.97;;;19.30;;
10831;SDS011;5469;48.574;8.768;2023-05-18T12:01:43;76.10;;;37.43;;
10831;SDS011;5469;48.574;8.768;2023-05-18T12:04:19;68.30;;;37.47;;
10831;SDS011;5469;48.574;8.768;2023-05-18T12:06:52;63.33;;;33.57;;
10831;SDS011;5469;48.574;8.768;2023-05-18T12:09:29;50.10;;;26.33;;
10831;SDS011;5469;48.574;8.768;2023-05-18T12:12:03;34.47;;;19.40;;
10831;SDS011;5469;48.574;8.768;2023-05-18T12:14:40;21.93;;;13.03;;
10831;SDS011;5469;48.574;8.768;2023-05-18T12:17:14;17.30;;;10.93;;
10831;SDS011;5469;48.574;8.768;2023-05-18T12:19:49;13.90;;;8.40;;
10831;SDS011;5469;48.574;8.768;2023-05-18T12:22:22;10.17;;;5.90;;
10831;SDS011;5469;48.574;8.768;2023-05-18T12:24:58;9.70;;;5.17;;
10831;SDS011;5469;48.574;8.768;2023-05-18T12:27:35;5.50;;;4.30;;
10831;SDS011;5469;48.574;8.768;2023-05-18T12:30:11;6.00;;;3.80;;
10831;SDS011;5469;48.574;8.768;2023-05-18T12:32:49;4.03;;;2.53;;
10831;SDS011;5469;48.574;8.768;2023-05-18T12:35:26;5.07;;;2.33;;
10831;SDS011;5469;48.574;8.768;2023-05-18T12:38:01;1.70;;;1.50;;
10831;SDS011;5469;48.574;8.768;2023-05-18T12:40:35;1.90;;;1.50;;
10831;SDS011;5469;48.574;8.768;2023-05-18T12:43:15;3.40;;;1.63;;
10831;SDS011;5469;48.574;8.768;2023-05-18T12:45:48;1.87;;;1.10;;
10831;SDS011;5469;48.574;8.768;2023-05-18T12:48:22;1.60;;;1.27;;
10831;SDS011;5469;48.574;8.768;2023-05-18T12:50:58;3.03;;;1.50;;
10831;SDS011;5469;48.574;8.768;2023-05-18T12:53:39;1.73;;;1.30;;
10831;SDS011;5469;48.574;8.768;2023-05-18T12:56:14;3.00;;;1.10;;
10831;SDS011;5469;48.574;8.768;2023-05-18T12:58:55;2.10;;;1.30;;
10831;SDS011;5469;48.574;8.768;2023-05-18T13:01:39;1.30;;;1.20;;
10831;SDS011;5469;48.574;8.768;2023-05-18T13:04:14;1.40;;;0.87;;
10831;SDS011;5469;48.574;8.768;2023-05-18T13:06:49;2.00;;;1.10;;
10831;SDS011;5469;48.574;8.768;2023-05-18T13:09:22;2.87;;;1.33;;
10831;SDS011;5469;48.574;8.768;2023-05-18T13:11:58;2.93;;;1.27;;
10831;SDS011;5469;48.574;8.768;2023-05-18T13:14:36;1.33;;;0.80;;
10831;SDS011;5469;48.574;8.768;2023-05-18T13:17:09;1.13;;;0.90;;
10831;SDS011;5469;48.574;8.768;2023-05-18T13:19:55;2.17;;;1.10;;
10831;SDS011;5469;48.574;8.768;2023-05-18T13:22:30;1.70;;;1.20;;
10831;SDS011;5469;48.574;8.768;2023-05-18T13:25:04;1.37;;;1.10;;
10831;SDS011;5469;48.574;8.768;2023-05-18T13:27:39;1.53;;;0.90;;
10831;SDS011;5469;48.574;8.768;2023-05-18T13:30:12;2.57;;;1.07;;
10831;SDS011;5469;48.574;8.768;2023-05-18T13:32:46;1.43;;;0.73;;
10831;SDS011;5469;48.574;8.768;2023-05-18T13:35:19;2.10;;;0.90;;
10831;SDS011;5469;48.574;8.768;2023-05-18T13:37:54;1.53;;;1.10;;
10831;SDS011;5469;48.574;8.768;2023-05-18T13:40:28;1.13;;;0.77;;
10831;SDS011;5469;48.574;8.768;2023-05-18T13:43:01;3.50;;;0.97;;
10831;SDS011;5469;48.574;8.768;2023-05-18T13:45:36;1.43;;;1.03;;
10831;SDS011;5469;48.574;8.768;2023-05-18T13:48:10;4.87;;;1.30;;
10831;SDS011;5469;48.574;8.768;2023-05-18T13:50:44;1.90;;;1.27;;
10831;SDS011;5469;48.574;8.768;2023-05-18T13:53:19;1.10;;;0.87;;
10831;SDS011;5469;48.574;8.768;2023-05-18T13:55:53;2.33;;;1.00;;
10831;SDS011;5469;48.574;8.768;2023-05-18T13:58:26;0.93;;;0.87;;
10831;SDS011;5469;48.574;8.768;2023-05-18T14:00:59;2.30;;;1.67;;
10831;SDS011;5469;48.574;8.768;2023-05-18T14:03:35;6.10;;;1.20;;
10831;SDS011;5469;48.574;8.768;2023-05-18T14:06:11;2.73;;;1.33;;
10831;SDS011;5469;48.574;8.768;2023-05-18T14:08:46;1.27;;;0.90;;
10831;SDS011;5469;48.574;8.768;2023-05-18T14:11:19;1.20;;;1.10;;
10831;SDS011;5469;48.574;8.768;2023-05-18T14:13:52;1.37;;;1.10;;
10831;SDS011;5469;48.574;8.768;2023-05-18T14:16:25;2.03;;;1.00;;
10831;SDS011;5469;48.574;8.768;2023-05-18T14:19:00;3.27;;;1.00;;
10831;SDS011;5469;48.574;8.768;2023-05-18T14:21:33;0.80;;;0.80;;
10831;SDS011;5469;48.574;8.768;2023-05-18T14:24:08;0.70;;;0.70;;
10831;SDS011;5469;48.574;8.768;2023-05-18T14:26:42;2.70;;;1.10;;
10831;SDS011;5469;48.574;8.768;2023-05-18T14:29:15;1.93;;;0.90;;
10831;SDS011;5469;48.574;8.768;2023-05-18T14:31:49;1.83;;;0.93;;
10831;SDS011;5469;48.574;8.768;2023-05-18T14:34:22;1.73;;;0.97;;
10831;SDS011;5469;48.574;8.768;2023-05-18T14:36:55;0.77;;;0.77;;
10831;SDS011;5469;48.574;8.768;2023-05-18T14:39:30;1.27;;;1.10;;
10831;SDS011;5469;48.574;8.768;2023-05-18T14:42:04;1.50;;;0.87;;
10831;SDS011;5469;48.574;8.768;2023-05-18T14:44:38;1.40;;;1.30;;
10831;SDS011;5469;48.574;8.768;2023-05-18T14:47:11;1.47;;;1.30;;
10831;SDS011;5469;48.574;8.768;2023-05-18T14:49:44;2.03;;;1.43;;
10831;SDS011;5469;48.574;8.768;2023-05-18T14:52:18;1.93;;;1.17;;
10831;SDS011;5469;48.574;8.768;2023-05-18T14:54:53;2.03;;;1.27;;
10831;SDS011;5469;48.574;8.768;2023-05-18T14:57:26;1.80;;;1.07;;
10831;SDS011;5469;48.574;8.768;2023-05-18T15:00:00;1.17;;;0.90;;
10831;SDS011;5469;48.574;8.768;2023-05-18T15:02:33;0.70;;;0.70;;
10831;SDS011;5469;48.574;8.768;2023-05-18T15:05:07;3.87;;;1.20;;
10831;SDS011;5469;48.574;8.768;2023-05-18T15:07:40;1.13;;;0.90;;
10831;SDS011;5469;48.574;8.768;2023-05-18T15:10:15;2.30;;;0.97;;
10831;SDS011;5469;48.574;8.768;2023-05-18T15:12:49;1.40;;;1.10;;
10831;SDS011;5469;48.574;8.768;2023-05-18T15:15:22;2.00;;;1.10;;
10831;SDS011;5469;48.574;8.768;2023-05-18T15:17:56;2.07;;;1.10;;
10831;SDS011;5469;48.574;8.768;2023-05-18T15:20:29;2.50;;;1.03;;
10831;SDS011;5469;48.574;8.768;2023-05-18T15:23:02;1.87;;;1.23;;
10831;SDS011;5469;48.574;8.768;2023-05-18T15:25:38;1.67;;;1.30;;
10831;SDS011;5469;48.574;8.768;2023-05-18T15:28:12;1.90;;;1.30;;
10831;SDS011;5469;48.574;8.768;2023-05-18T15:30:45;1.07;;;0.97;;
10831;SDS011;5469;48.574;8.768;2023-05-18T15:33:18;1.63;;;0.80;;
10831;SDS011;5469;48.574;8.768;2023-05-18T15:35:52;1.40;;;0.80;;
10831;SDS011;5469;48.574;8.768;2023-05-18T15:38:25;1.13;;;1.03;;
10831;SDS011;5469;48.574;8.768;2023-05-18T15:41:00;1.63;;;0.93;;
10831;SDS011;5469;48.574;8.768;2023-05-18T15:43:34;0.73;;;0.73;;
10831;SDS011;5469;48.574;8.768;2023-05-18T15:46:09;3.03;;;1.27;;
10831;SDS011;5469;48.574;8.768;2023-05-18T15:48:43;1.20;;;0.90;;
10831;SDS011;5469;48.574;8.768;2023-05-18T15:51:16;3.13;;;1.03;;